createdAt,value
2019-05-18T00:02:12.880Z,99.90
2019-05-18T00:04:43.646Z,99.90
2019-05-18T00:07:14.376Z,99.90
2019-05-18T00:09:45.112Z,99.90
2019-05-18T00:12:15.803Z,99.90
2019-05-18T00:14:47.858Z,99.90
2019-05-18T00:17:25.233Z,99.90
2019-05-18T00:19:50.999Z,99.90
2019-05-18T00:22:21.663Z,99.90
2019-05-18T00:24:52.404Z,99.90
2019-05-18T00:27:23.130Z,99.90
2019-05-18T00:29:54.925Z,99.90
2019-05-18T00:32:25.976Z,99.90
2019-05-18T00:34:56.683Z,99.90
2019-05-18T00:37:27.725Z,99.90
2019-05-18T00:39:58.394Z,99.90
2019-05-18T00:42:29.476Z,99.90
2019-05-18T00:45:00.283Z,99.90
2019-05-18T00:47:40.767Z,99.90
2019-05-18T00:50:03.347Z,99.90
2019-05-18T00:52:34.057Z,99.90
2019-05-18T00:55:05.133Z,99.90
2019-05-18T00:57:35.841Z,99.90
2019-05-18T01:00:07.979Z,99.90
2019-05-18T01:02:38.775Z,99.90
2019-05-18T01:05:10.095Z,99.90
2019-05-18T01:07:40.811Z,99.90
2019-05-18T01:10:11.902Z,99.90
2019-05-18T01:12:43.038Z,99.90
2019-05-18T01:15:14.277Z,99.90
2019-05-18T01:17:57.010Z,99.90
2019-05-18T01:20:18.441Z,99.90
2019-05-18T01:22:49.125Z,99.90
2019-05-18T01:25:19.895Z,99.90
2019-05-18T01:27:52.661Z,99.90
2019-05-18T01:30:23.570Z,99.90
2019-05-18T01:32:54.304Z,99.90
2019-05-18T01:35:25.073Z,99.90
2019-05-18T01:37:55.722Z,99.90
2019-05-18T01:40:26.442Z,99.90
2019-05-18T01:42:57.110Z,99.90
2019-05-18T01:45:27.828Z,99.90
2019-05-18T01:48:12.713Z,99.90
2019-05-18T01:50:31.613Z,99.90
2019-05-18T01:53:02.318Z,99.90
2019-05-18T01:55:33.525Z,99.90
2019-05-18T01:58:04.213Z,99.90
2019-05-18T02:00:35.085Z,99.90
2019-05-18T02:03:08.900Z,99.90
2019-05-18T02:05:39.574Z,99.90
2019-05-18T02:08:10.252Z,99.90
2019-05-18T02:10:40.959Z,99.90
2019-05-18T02:13:11.613Z,99.90
2019-05-18T02:15:43.011Z,99.90
2019-05-18T02:18:26.868Z,99.90
2019-05-18T02:20:46.611Z,99.90
2019-05-18T02:23:17.339Z,99.90
2019-05-18T02:25:47.996Z,99.90
2019-05-18T02:28:18.729Z,99.90
2019-05-18T02:30:49.462Z,99.90
2019-05-18T02:33:20.113Z,99.90
2019-05-18T02:35:51.076Z,99.90
2019-05-18T02:38:21.822Z,99.90
2019-05-18T02:40:52.526Z,99.90
2019-05-18T02:43:23.211Z,99.90
2019-05-18T02:45:53.990Z,99.90
2019-05-18T02:48:24.630Z,99.90
2019-05-18T02:50:55.399Z,99.90
2019-05-18T02:53:26.285Z,99.90
2019-05-18T02:55:56.950Z,99.90
2019-05-18T02:58:27.941Z,99.90
2019-05-18T03:00:58.640Z,99.90
2019-05-18T03:03:29.842Z,99.90
2019-05-18T03:06:00.940Z,99.90
2019-05-18T03:08:32.225Z,99.90
2019-05-18T03:11:03.198Z,99.90
2019-05-18T03:13:34.998Z,99.90
2019-05-18T03:16:05.683Z,99.90
2019-05-18T03:18:36.323Z,99.90
2019-05-18T03:21:07.023Z,99.90
2019-05-18T03:23:37.824Z,99.90
2019-05-18T03:26:08.487Z,99.90
2019-05-18T03:28:39.251Z,99.90
2019-05-18T03:31:09.903Z,99.90
2019-05-18T03:33:41.239Z,99.90
2019-05-18T03:36:11.995Z,99.90
2019-05-18T03:38:42.779Z,99.90
2019-05-18T03:41:13.424Z,99.90
2019-05-18T03:43:44.086Z,99.90
2019-05-18T03:46:14.770Z,99.90
2019-05-18T03:48:45.714Z,99.90
2019-05-18T03:51:17.067Z,99.90
2019-05-18T03:53:49.994Z,99.90
2019-05-18T03:56:20.831Z,99.90
2019-05-18T03:58:51.511Z,99.90
2019-05-18T04:01:33.034Z,99.90
2019-05-18T04:04:03.980Z,99.90
2019-05-18T04:06:34.930Z,99.90
2019-05-18T04:09:09.029Z,99.90
2019-05-18T04:11:41.551Z,99.90
2019-05-18T04:14:12.315Z,99.90
2019-05-18T04:16:43.024Z,99.90
2019-05-18T04:19:13.720Z,99.90
2019-05-18T04:21:44.803Z,99.90
2019-05-18T04:24:15.594Z,99.90
2019-05-18T04:26:46.868Z,99.90
2019-05-18T04:29:17.570Z,99.90
2019-05-18T04:31:48.303Z,99.90
2019-05-18T04:34:18.967Z,99.90
2019-05-18T04:36:49.656Z,99.90
2019-05-18T04:39:20.354Z,99.90
2019-05-18T04:41:51.329Z,99.90
2019-05-18T04:44:22.072Z,99.90
2019-05-18T04:46:52.763Z,99.90
2019-05-18T04:49:23.520Z,99.90
2019-05-18T04:51:54.243Z,99.90
2019-05-18T04:54:24.916Z,99.90
2019-05-18T04:56:55.587Z,99.90
2019-05-18T04:59:26.301Z,99.90
2019-05-18T05:01:57.250Z,99.90
2019-05-18T05:04:27.916Z,99.90
2019-05-18T05:06:58.684Z,99.90
2019-05-18T05:09:29.519Z,99.90
2019-05-18T05:12:00.177Z,99.90
2019-05-18T05:14:30.854Z,99.90
2019-05-18T05:17:01.575Z,99.90
2019-05-18T05:19:32.383Z,99.90
2019-05-18T05:22:03.207Z,99.90
2019-05-18T05:24:34.796Z,99.90
2019-05-18T05:27:05.542Z,99.90
2019-05-18T05:29:36.609Z,99.90
2019-05-18T05:32:07.599Z,99.90
2019-05-18T05:34:38.536Z,99.90
2019-05-18T05:37:09.412Z,99.90
2019-05-18T05:39:41.187Z,99.90
2019-05-18T05:42:11.957Z,99.90
2019-05-18T05:44:42.672Z,99.90
2019-05-18T05:47:13.334Z,99.90
2019-05-18T05:49:43.970Z,99.90
2019-05-18T05:52:14.666Z,99.90
2019-05-18T05:54:45.509Z,99.90
2019-05-18T05:57:16.168Z,99.90
2019-05-18T05:59:47.048Z,99.90
2019-05-18T06:02:17.794Z,99.90
2019-05-18T06:04:48.491Z,99.90
2019-05-18T06:07:19.168Z,99.90
2019-05-18T06:09:49.891Z,99.90
2019-05-18T06:12:20.721Z,99.90
2019-05-18T06:14:51.691Z,99.90
2019-05-18T06:17:22.367Z,99.90
2019-05-18T06:19:53.176Z,99.90
2019-05-18T06:22:25.184Z,99.90
2019-05-18T06:24:56.026Z,99.90
2019-05-18T06:27:26.760Z,99.90
2019-05-18T06:29:57.451Z,99.90
2019-05-18T06:32:28.129Z,99.90
2019-05-18T06:34:58.892Z,99.90
2019-05-18T06:37:29.593Z,99.90
2019-05-18T06:40:00.884Z,99.90
2019-05-18T06:42:32.131Z,99.90
2019-05-18T06:45:03.553Z,99.90
2019-05-18T06:47:34.327Z,99.90
2019-05-18T06:50:05.051Z,99.90
2019-05-18T06:52:35.847Z,99.90
2019-05-18T06:55:06.882Z,99.90
2019-05-18T06:57:38.789Z,99.90
2019-05-18T07:00:13.724Z,99.90
2019-05-18T07:02:44.509Z,99.90
2019-05-18T07:05:15.259Z,99.90
2019-05-18T07:07:45.929Z,99.90
2019-05-18T07:10:16.727Z,99.90
2019-05-18T07:12:47.370Z,99.90
2019-05-18T07:15:19.342Z,99.90
2019-05-18T07:17:51.427Z,99.90
2019-05-18T07:20:22.083Z,99.90
2019-05-18T07:22:52.835Z,99.90
2019-05-18T07:25:23.594Z,99.90
2019-05-18T07:27:54.385Z,99.90
2019-05-18T07:30:25.254Z,99.90
2019-05-18T07:32:56.079Z,99.90
2019-05-18T07:35:26.845Z,99.90
2019-05-18T07:37:57.620Z,99.90
2019-05-18T07:40:28.414Z,99.90
2019-05-18T07:43:11.977Z,99.90
2019-05-18T07:45:52.409Z,99.90
2019-05-18T07:48:23.463Z,99.90
2019-05-18T07:50:54.136Z,99.90
2019-05-18T07:53:24.865Z,99.90
2019-05-18T07:55:55.669Z,99.90
2019-05-18T07:58:27.481Z,99.90
2019-05-18T08:01:01.849Z,99.90
2019-05-18T08:03:33.570Z,99.90
2019-05-18T08:06:04.357Z,99.90
2019-05-18T08:08:35.508Z,99.90
2019-05-18T08:11:06.262Z,99.90
2019-05-18T08:13:37.124Z,99.90
2019-05-18T08:16:07.812Z,99.90
2019-05-18T08:18:39.213Z,99.90
2019-05-18T08:21:10.067Z,99.90
2019-05-18T08:23:45.434Z,99.90
2019-05-18T08:26:16.256Z,99.90
2019-05-18T08:28:47.461Z,99.90
2019-05-18T08:31:18.222Z,99.90
2019-05-18T08:33:50.391Z,99.90
2019-05-18T08:36:21.605Z,99.90
2019-05-18T08:38:52.440Z,99.90
2019-05-18T08:41:28.234Z,99.90
2019-05-18T08:43:58.890Z,99.90
2019-05-18T08:46:29.581Z,99.90
2019-05-18T08:49:08.493Z,99.90
2019-05-18T08:51:40.451Z,99.90
2019-05-18T08:54:11.350Z,99.90
2019-05-18T08:56:42.066Z,99.90
2019-05-18T08:59:12.859Z,99.90
2019-05-18T09:01:43.700Z,99.90
2019-05-18T09:04:14.467Z,99.90
2019-05-18T09:06:45.999Z,99.90
2019-05-18T09:09:16.805Z,99.90
2019-05-18T09:11:48.687Z,99.90
2019-05-18T09:14:19.508Z,99.90
2019-05-18T09:16:51.308Z,99.90
2019-05-18T09:19:22.100Z,99.90
2019-05-18T09:21:54.083Z,99.90
2019-05-18T09:24:24.802Z,99.90
2019-05-18T09:26:55.813Z,99.90
2019-05-18T09:29:26.539Z,99.90
2019-05-18T09:31:57.318Z,99.90
2019-05-18T09:34:28.748Z,99.90
2019-05-18T09:37:02.629Z,99.90
2019-05-18T09:39:34.710Z,99.90
2019-05-18T09:42:08.647Z,99.90
2019-05-18T09:44:40.558Z,99.90
2019-05-18T09:47:11.564Z,99.90
2019-05-18T09:49:42.829Z,99.90
2019-05-18T09:52:13.588Z,99.90
2019-05-18T09:54:44.522Z,99.90
2019-05-18T09:57:15.224Z,99.90
2019-05-18T09:59:48.414Z,99.90
2019-05-18T10:02:19.114Z,99.90
2019-05-18T10:04:50.466Z,99.90
2019-05-18T10:07:21.158Z,99.90
2019-05-18T10:09:52.673Z,99.90
2019-05-18T10:12:24.829Z,99.90
2019-05-18T10:14:56.744Z,99.90
2019-05-18T10:17:27.471Z,99.90
2019-05-18T10:19:58.141Z,99.90
2019-05-18T10:22:28.976Z,99.90
2019-05-18T10:24:59.722Z,99.90
2019-05-18T10:27:30.404Z,99.90
2019-05-18T10:30:01.068Z,99.90
2019-05-18T10:32:31.761Z,99.90
2019-05-18T10:35:02.456Z,99.90
2019-05-18T10:37:33.135Z,99.90
2019-05-18T10:40:03.855Z,99.90
2019-05-18T10:42:34.633Z,99.90
2019-05-18T10:45:05.869Z,99.90
2019-05-18T10:47:36.505Z,99.90
2019-05-18T10:50:08.268Z,99.90
2019-05-18T10:52:39.035Z,99.90
2019-05-18T10:55:10.715Z,99.90
2019-05-18T10:57:42.624Z,99.90
2019-05-18T11:00:14.512Z,99.90
2019-05-18T11:02:45.208Z,99.90
2019-05-18T11:05:16.264Z,99.70
2019-05-18T11:07:47.412Z,96.30
2019-05-18T11:10:20.735Z,96.90
2019-05-18T11:12:51.433Z,95.70
2019-05-18T11:15:23.781Z,93.80
2019-05-18T11:17:55.067Z,93.10
2019-05-18T11:20:25.944Z,93.90
2019-05-18T11:22:57.510Z,93.30
2019-05-18T11:25:28.216Z,93.50
2019-05-18T11:27:59.057Z,94.50
2019-05-18T11:30:29.785Z,94.30
2019-05-18T11:33:00.592Z,92.80
2019-05-18T11:35:31.346Z,92.50
2019-05-18T11:38:02.138Z,92.70
2019-05-18T11:40:32.875Z,96.90
2019-05-18T11:43:03.545Z,96.70
2019-05-18T11:45:34.452Z,94.90
2019-05-18T11:48:05.201Z,92.00
2019-05-18T11:50:35.933Z,93.70
2019-05-18T11:53:06.708Z,93.60
2019-05-18T11:55:37.514Z,94.20
2019-05-18T11:58:08.434Z,93.60
2019-05-18T12:00:40.135Z,93.20
2019-05-18T12:03:10.844Z,93.50
2019-05-18T12:05:41.592Z,93.20
2019-05-18T12:08:12.321Z,92.00
2019-05-18T12:10:42.986Z,91.50
2019-05-18T12:13:13.686Z,92.60
2019-05-18T12:15:44.579Z,91.40
2019-05-18T12:18:15.335Z,90.30
2019-05-18T12:20:46.217Z,91.30
2019-05-18T12:23:16.879Z,87.50
2019-05-18T12:25:50.640Z,89.00
2019-05-18T12:28:19.979Z,84.20
2019-05-18T12:30:50.645Z,80.30
2019-05-18T12:33:21.282Z,81.70
2019-05-18T12:35:53.191Z,84.00
2019-05-18T12:38:24.055Z,83.80
2019-05-18T12:40:55.215Z,83.00
2019-05-18T12:43:25.877Z,83.50
2019-05-18T12:45:57.390Z,80.70
2019-05-18T12:48:28.115Z,78.80
2019-05-18T12:50:59.104Z,76.80
2019-05-18T12:53:29.787Z,73.70
2019-05-18T12:56:01.332Z,72.20
2019-05-18T12:58:32.090Z,66.10
2019-05-18T13:01:02.996Z,57.60
2019-05-18T13:03:33.706Z,58.00
2019-05-18T13:06:04.868Z,56.50
2019-05-18T13:08:35.522Z,58.10
2019-05-18T13:11:06.441Z,56.70
2019-05-18T13:13:37.216Z,55.00
2019-05-18T13:16:07.935Z,56.30
2019-05-18T13:18:39.120Z,54.60
2019-05-18T13:21:09.847Z,54.40
2019-05-18T13:23:40.696Z,54.70
2019-05-18T13:26:11.363Z,53.50
2019-05-18T13:28:42.397Z,51.90
2019-05-18T13:31:13.139Z,52.90
2019-05-18T13:33:44.211Z,52.20
2019-05-18T13:36:15.008Z,52.50
2019-05-18T13:38:45.716Z,52.60
2019-05-18T13:41:16.923Z,50.80
2019-05-18T13:43:47.681Z,49.30
2019-05-18T13:46:18.356Z,49.00
2019-05-18T13:48:49.023Z,49.70
2019-05-18T13:51:19.680Z,49.40
2019-05-18T13:53:51.051Z,49.40
2019-05-18T13:56:21.705Z,49.20
2019-05-18T13:58:52.351Z,50.00
2019-05-18T14:01:24.834Z,49.30
2019-05-18T14:03:55.402Z,47.80
2019-05-18T14:06:26.237Z,47.50
2019-05-18T14:08:57.933Z,48.70
2019-05-18T14:11:28.700Z,49.20
2019-05-18T14:13:59.355Z,46.80
2019-05-18T14:16:30.113Z,45.40
2019-05-18T14:19:00.890Z,45.60
2019-05-18T14:21:31.804Z,45.20
2019-05-18T14:24:02.983Z,45.60
2019-05-18T14:26:33.688Z,46.10
2019-05-18T14:29:05.088Z,46.50
2019-05-18T14:31:35.823Z,47.30
2019-05-18T14:34:07.487Z,47.00
2019-05-18T14:36:39.066Z,46.40
2019-05-18T14:39:09.854Z,47.30
2019-05-18T14:41:42.572Z,45.80
2019-05-18T14:44:13.024Z,45.30
2019-05-18T14:46:43.668Z,48.00
2019-05-18T14:49:14.317Z,47.00
2019-05-18T14:51:45.450Z,47.60
2019-05-18T14:54:18.212Z,46.30
2019-05-18T14:56:48.910Z,46.20
2019-05-18T14:59:19.641Z,46.70
2019-05-18T15:01:50.357Z,45.50
2019-05-18T15:04:21.046Z,46.00
2019-05-18T15:06:51.776Z,46.60
2019-05-18T15:09:22.492Z,46.30
2019-05-18T15:11:53.733Z,47.40
2019-05-18T15:14:24.416Z,47.50
2019-05-18T15:16:55.067Z,46.90
2019-05-18T15:19:25.734Z,47.00
2019-05-18T15:21:56.379Z,46.90
2019-05-18T15:24:27.038Z,46.40
2019-05-18T15:26:57.798Z,46.60
2019-05-18T15:29:28.465Z,46.50
2019-05-18T15:31:59.150Z,47.60
2019-05-18T15:34:29.898Z,47.50
2019-05-18T15:37:00.635Z,48.10
2019-05-18T15:39:31.363Z,48.00
2019-05-18T15:42:02.050Z,48.90
2019-05-18T15:44:32.810Z,50.00
2019-05-18T15:47:03.528Z,50.80
2019-05-18T15:49:34.420Z,51.30
2019-05-18T15:52:05.357Z,51.50
2019-05-18T15:54:37.139Z,51.30
2019-05-18T15:57:07.969Z,51.20
2019-05-18T15:59:38.773Z,51.40
2019-05-18T16:02:09.543Z,51.40
2019-05-18T16:04:40.406Z,50.90
2019-05-18T16:07:11.077Z,51.10
2019-05-18T16:09:42.477Z,51.40
2019-05-18T16:12:13.134Z,50.50
2019-05-18T16:14:43.908Z,50.50
2019-05-18T16:17:14.567Z,51.80
2019-05-18T16:19:45.259Z,52.30
2019-05-18T16:22:16.328Z,51.90
2019-05-18T16:24:47.123Z,52.60
2019-05-18T16:27:17.802Z,52.70
2019-05-18T16:29:49.307Z,53.40
2019-05-18T16:32:20.197Z,52.90
2019-05-18T16:34:50.927Z,52.80
2019-05-18T16:37:22.465Z,53.90
2019-05-18T16:39:53.127Z,52.90
2019-05-18T16:42:24.395Z,54.40
2019-05-18T16:44:55.331Z,54.50
2019-05-18T16:47:26.116Z,54.90
2019-05-18T16:49:56.808Z,54.90
2019-05-18T16:52:27.604Z,53.90
2019-05-18T16:54:58.345Z,54.40
2019-05-18T16:57:29.005Z,54.20
2019-05-18T16:59:59.658Z,54.30
2019-05-18T17:02:31.911Z,54.20
2019-05-18T17:05:02.867Z,54.50
2019-05-18T17:07:33.539Z,54.90
2019-05-18T17:10:04.353Z,56.50
2019-05-18T17:12:34.995Z,56.70
2019-05-18T17:15:06.009Z,57.20
2019-05-18T17:17:36.794Z,57.80
2019-05-18T17:20:09.012Z,58.20
2019-05-18T17:22:39.738Z,56.80
2019-05-18T17:25:10.930Z,57.00
2019-05-18T17:27:43.223Z,56.80
2019-05-18T17:30:14.714Z,57.00
2019-05-18T17:32:45.380Z,57.50
2019-05-18T17:35:16.457Z,57.70
2019-05-18T17:37:47.306Z,58.50
2019-05-18T17:40:18.978Z,58.60
2019-05-18T17:42:49.716Z,60.00
2019-05-18T17:45:20.356Z,61.20
2019-05-18T17:47:51.546Z,61.00
2019-05-18T17:50:23.347Z,62.70
2019-05-18T17:52:54.437Z,62.60
2019-05-18T17:55:25.561Z,63.70
2019-05-18T17:57:57.325Z,64.00
2019-05-18T18:00:29.891Z,65.10
2019-05-18T18:03:00.720Z,67.00
2019-05-18T18:05:31.632Z,68.30
2019-05-18T18:08:02.380Z,68.60
2019-05-18T18:10:33.276Z,68.70
2019-05-18T18:13:04.040Z,69.20
2019-05-18T18:15:36.458Z,70.20
2019-05-18T18:18:07.123Z,71.30
2019-05-18T18:20:38.014Z,73.30
2019-05-18T18:23:08.640Z,74.80
2019-05-18T18:25:39.368Z,76.30
2019-05-18T18:28:10.000Z,80.50
2019-05-18T18:30:43.414Z,87.30
2019-05-18T18:33:14.257Z,90.00
2019-05-18T18:35:47.415Z,91.70
2019-05-18T18:38:18.079Z,93.90
2019-05-18T18:40:48.743Z,98.40
2019-05-18T18:43:20.540Z,99.90
2019-05-18T18:45:51.632Z,99.90
2019-05-18T18:48:22.315Z,99.90
2019-05-18T18:50:54.649Z,99.90
2019-05-18T18:53:25.416Z,99.90
2019-05-18T18:55:56.192Z,99.90
2019-05-18T18:58:27.450Z,99.90
2019-05-18T19:00:58.359Z,99.90
2019-05-18T19:03:29.440Z,99.90
2019-05-18T19:06:00.148Z,99.90
2019-05-18T19:08:31.363Z,99.90
2019-05-18T19:11:02.346Z,99.90
2019-05-18T19:13:34.576Z,99.90
2019-05-18T19:16:05.608Z,99.90
2019-05-18T19:18:36.294Z,99.90
2019-05-18T19:21:07.574Z,99.90
2019-05-18T19:23:38.347Z,99.90
2019-05-18T19:26:09.018Z,99.90
2019-05-18T19:28:39.930Z,99.90
2019-05-18T19:31:10.930Z,99.90
2019-05-18T19:33:43.684Z,99.90
2019-05-18T19:36:14.388Z,99.90
2019-05-18T19:38:52.755Z,99.90
2019-05-18T19:41:28.635Z,99.90
2019-05-18T19:43:59.279Z,99.90
2019-05-18T19:46:30.694Z,99.90
2019-05-18T19:49:01.975Z,99.90
2019-05-18T19:51:32.818Z,99.90
2019-05-18T19:54:03.629Z,99.90
2019-05-18T19:56:39.116Z,99.90
2019-05-18T19:59:06.856Z,99.90
2019-05-18T20:01:38.492Z,99.90
2019-05-18T20:04:09.742Z,99.90
2019-05-18T20:06:42.659Z,99.90
2019-05-18T20:09:13.418Z,99.90
2019-05-18T20:11:44.176Z,99.90
2019-05-18T20:14:15.095Z,99.90
2019-05-18T20:16:45.800Z,99.90
2019-05-18T20:19:17.947Z,99.90
2019-05-18T20:21:48.712Z,99.90
2019-05-18T20:24:20.200Z,99.90
2019-05-18T20:26:51.172Z,99.90
2019-05-18T20:29:22.014Z,99.90
2019-05-18T20:31:52.869Z,99.90
2019-05-18T20:34:23.602Z,99.90
2019-05-18T20:36:54.367Z,99.90
2019-05-18T20:39:25.125Z,99.90
2019-05-18T20:41:56.187Z,99.90
2019-05-18T20:44:27.009Z,99.90
2019-05-18T20:46:57.821Z,99.90
2019-05-18T20:49:28.808Z,99.90
2019-05-18T20:52:01.177Z,99.90
2019-05-18T20:54:32.033Z,99.90
2019-05-18T20:57:02.826Z,99.90
2019-05-18T20:59:34.185Z,99.90
2019-05-18T21:02:04.989Z,99.90
2019-05-18T21:04:36.469Z,99.90
2019-05-18T21:07:07.233Z,99.90
2019-05-18T21:09:41.777Z,99.90
2019-05-18T21:12:12.842Z,99.90
2019-05-18T21:14:44.243Z,99.90
2019-05-18T21:17:14.913Z,99.90
2019-05-18T21:19:45.619Z,99.90
2019-05-18T21:22:17.501Z,99.90
2019-05-18T21:24:48.195Z,99.90
2019-05-18T21:27:18.993Z,99.90
2019-05-18T21:29:50.153Z,99.90
2019-05-18T21:32:27.134Z,99.90
2019-05-18T21:35:01.229Z,99.90
2019-05-18T21:37:32.899Z,99.90
2019-05-18T21:40:03.839Z,99.90
2019-05-18T21:42:34.639Z,99.90
2019-05-18T21:45:05.583Z,99.90
2019-05-18T21:47:36.440Z,99.90
2019-05-18T21:50:08.337Z,99.90
2019-05-18T21:52:41.869Z,99.90
2019-05-18T21:55:11.914Z,99.90
2019-05-18T21:57:44.973Z,99.90
2019-05-18T22:00:16.585Z,99.90
2019-05-18T22:02:48.349Z,99.90
2019-05-18T22:05:21.375Z,99.90
2019-05-18T22:07:52.104Z,99.90
2019-05-18T22:10:25.752Z,99.90
2019-05-18T22:12:55.650Z,99.90
2019-05-18T22:15:28.037Z,99.90
2019-05-18T22:18:05.304Z,99.90
2019-05-18T22:20:43.545Z,99.90
2019-05-18T22:23:11.157Z,99.90
2019-05-18T22:25:42.560Z,99.90
2019-05-18T22:28:14.464Z,99.90
2019-05-18T22:30:45.997Z,99.90
2019-05-18T22:33:16.809Z,99.90
2019-05-18T22:35:48.666Z,99.90
2019-05-18T22:38:20.018Z,99.90
2019-05-18T22:40:51.175Z,99.90
2019-05-18T22:43:22.075Z,99.90
2019-05-18T22:45:53.025Z,99.90
2019-05-18T22:48:23.800Z,99.90
2019-05-18T22:50:55.253Z,99.90
2019-05-18T22:53:26.078Z,99.90
2019-05-18T22:55:57.135Z,99.90
2019-05-18T22:58:28.679Z,99.90
2019-05-18T23:00:59.506Z,99.90
2019-05-18T23:03:30.564Z,99.90
2019-05-18T23:06:02.110Z,99.90
2019-05-18T23:08:33.593Z,99.90
2019-05-18T23:11:04.225Z,99.90
2019-05-18T23:13:34.893Z,99.90
2019-05-18T23:16:05.619Z,99.90
2019-05-18T23:18:36.300Z,99.90
2019-05-18T23:21:07.027Z,99.90
2019-05-18T23:23:37.863Z,99.90
2019-05-18T23:26:11.566Z,99.90
2019-05-18T23:28:40.992Z,99.90
2019-05-18T23:31:11.675Z,99.90
2019-05-18T23:33:42.928Z,99.90
2019-05-18T23:36:13.576Z,99.90
2019-05-18T23:38:44.342Z,99.90
2019-05-18T23:41:15.048Z,99.90
2019-05-18T23:43:45.723Z,99.90
2019-05-18T23:46:16.361Z,99.90
2019-05-18T23:48:47.047Z,99.90
2019-05-18T23:51:17.707Z,99.90
2019-05-18T23:53:48.806Z,99.90
2019-05-18T23:56:19.429Z,99.90
2019-05-18T23:58:50.662Z,99.90
